Time;durP1;ratioP1;P1;durP2;ratioP2;P2;SDS_P1;SDS_P2;PMS_P1;PMS_P2;Temp;Humidity;BMP_temperature;BMP_pressure;BME280_temperature;BME280_humidity;BME280_pressure;Samples;Min_cycle;Max_cycle;Signal;HPM_P1;HPM_P2
2021/10/10 00:02:12;;;;;;;76.60;44.63;;;8.40;99.90;;;;;;5080220;27;37502;-78
2021/10/10 00:04:38;;;;;;;68.13;43.07;;;8.40;99.90;;;;;;5059045;28;39920;-77
2021/10/10 00:07:04;;;;;;;75.53;45.57;;;8.30;99.90;;;;;;5075621;28;39314;-77
2021/10/10 00:09:30;;;;;;;78.23;46.70;;;8.30;99.90;;;;;;5060328;28;40771;-77
2021/10/10 00:11:56;;;;;;;66.00;40.20;;;8.20;99.90;;;;;;5076988;28;38171;-77
2021/10/10 00:14:23;;;;;;;73.87;43.27;;;8.20;99.90;;;;;;5053841;28;39481;-78
2021/10/10 00:16:49;;;;;;;65.20;41.47;;;8.20;99.90;;;;;;5054145;28;38728;-77
2021/10/10 00:19:15;;;;;;;65.83;41.47;;;8.20;99.90;;;;;;5072552;28;37781;-77
2021/10/10 00:21:41;;;;;;;73.17;45.07;;;8.10;99.90;;;;;;5059094;28;37396;-78
2021/10/10 00:24:07;;;;;;;75.90;42.40;;;8.10;99.90;;;;;;5072071;28;38297;-79
2021/10/10 00:26:33;;;;;;;70.03;42.53;;;8.10;99.90;;;;;;5049797;28;39554;-78
2021/10/10 00:28:59;;;;;;;70.77;44.90;;;8.10;99.90;;;;;;5073720;28;39122;-78
2021/10/10 00:31:26;;;;;;;65.70;42.37;;;8.10;99.90;;;;;;5071096;28;37520;-78
2021/10/10 00:33:52;;;;;;;61.33;39.47;;;8.10;99.90;;;;;;5068374;27;39662;-78
2021/10/10 00:36:18;;;;;;;70.53;43.87;;;8.10;99.90;;;;;;5055964;28;38984;-78
2021/10/10 00:38:44;;;;;;;70.90;43.83;;;8.10;99.90;;;;;;5077122;28;37951;-78
2021/10/10 00:41:10;;;;;;;71.13;41.83;;;8.00;99.90;;;;;;5057169;28;38115;-78
2021/10/10 00:43:36;;;;;;;76.63;46.87;;;8.00;99.90;;;;;;5077973;28;37572;-78
2021/10/10 00:46:02;;;;;;;70.80;43.07;;;8.10;99.90;;;;;;5056592;28;39290;-78
2021/10/10 00:48:29;;;;;;;75.03;46.30;;;8.10;99.90;;;;;;5075565;28;37827;-80
2021/10/10 00:50:55;;;;;;;62.00;40.30;;;8.00;99.90;;;;;;5060942;28;37987;-79
2021/10/10 00:53:23;;;;;;;77.07;44.37;;;8.00;99.90;;;;;;5059633;28;39316;-79
2021/10/10 00:55:52;;;;;;;66.40;41.47;;;8.00;99.90;;;;;;5080982;28;39550;-79
2021/10/10 00:58:23;;;;;;;65.93;40.83;;;7.90;99.90;;;;;;5055930;28;39239;-79
2021/10/10 01:00:51;;;;;;;66.87;39.60;;;7.90;99.90;;;;;;5083037;28;38136;-79
2021/10/10 01:03:17;;;;;;;71.37;43.03;;;7.90;99.90;;;;;;5081125;28;41376;-78
2021/10/10 01:05:44;;;;;;;67.90;43.40;;;7.90;99.90;;;;;;5082778;28;39188;-78
2021/10/10 01:08:13;;;;;;;72.23;43.07;;;7.80;99.90;;;;;;5061052;28;38734;-77
2021/10/10 01:10:40;;;;;;;65.67;40.47;;;7.80;99.90;;;;;;5065796;28;38426;-78
2021/10/10 01:13:07;;;;;;;64.33;40.80;;;7.80;99.90;;;;;;5075419;28;39629;-77
2021/10/10 01:15:33;;;;;;;76.03;46.33;;;7.80;99.90;;;;;;5062869;28;39344;-78
2021/10/10 01:17:59;;;;;;;73.93;44.70;;;7.80;99.90;;;;;;5075344;28;37657;-77
2021/10/10 01:20:27;;;;;;;71.43;42.30;;;7.80;99.90;;;;;;5061513;28;38313;-77
2021/10/10 01:22:54;;;;;;;73.87;44.23;;;7.80;99.90;;;;;;5061017;28;40625;-77
2021/10/10 01:25:20;;;;;;;70.60;43.37;;;7.80;99.90;;;;;;5059378;28;39290;-79
2021/10/10 01:27:46;;;;;;;67.07;42.00;;;7.70;99.90;;;;;;5078438;28;36282;-78
2021/10/10 01:30:12;;;;;;;73.83;43.50;;;7.70;99.90;;;;;;5062332;28;38987;-78
2021/10/10 01:32:38;;;;;;;66.47;40.63;;;7.70;99.90;;;;;;5052144;28;40609;-77
2021/10/10 01:35:05;;;;;;;82.60;46.77;;;7.70;99.90;;;;;;5071861;28;37759;-75
2021/10/10 01:37:31;;;;;;;71.10;43.03;;;7.70;99.90;;;;;;5077793;28;38237;-78
2021/10/10 01:39:57;;;;;;;62.47;41.13;;;7.60;99.90;;;;;;5069467;28;37394;-77
2021/10/10 01:42:23;;;;;;;68.80;43.27;;;7.70;99.90;;;;;;5056328;28;40688;-78
2021/10/10 01:44:49;;;;;;;75.47;43.57;;;7.70;99.90;;;;;;5078299;28;38316;-78
2021/10/10 01:47:15;;;;;;;73.60;44.17;;;7.70;99.90;;;;;;5056295;28;38824;-78
2021/10/10 01:49:41;;;;;;;68.47;40.87;;;7.70;99.90;;;;;;5054966;28;37110;-76
2021/10/10 01:52:07;;;;;;;66.07;40.50;;;7.70;99.90;;;;;;5075203;28;39584;-79
2021/10/10 01:54:33;;;;;;;68.23;41.70;;;7.60;99.90;;;;;;5057803;28;39093;-78
2021/10/10 01:56:59;;;;;;;71.57;44.27;;;7.70;99.90;;;;;;5071218;28;38521;-78
2021/10/10 01:59:25;;;;;;;63.10;40.00;;;7.70;99.90;;;;;;5057397;28;38093;-78
2021/10/10 02:01:51;;;;;;;65.93;41.07;;;7.60;99.90;;;;;;5053236;28;39629;-78
2021/10/10 02:04:17;;;;;;;68.30;41.50;;;7.70;99.90;;;;;;5071164;28;38428;-78
2021/10/10 02:06:44;;;;;;;64.07;41.37;;;7.70;99.90;;;;;;5052024;28;38379;-78
2021/10/10 02:09:10;;;;;;;54.57;35.73;;;7.60;99.90;;;;;;5075321;28;37141;-79
2021/10/10 02:11:36;;;;;;;57.97;37.43;;;7.60;99.90;;;;;;5074890;28;38699;-79
2021/10/10 02:14:02;;;;;;;62.90;38.80;;;7.60;99.90;;;;;;5055052;28;37623;-78
2021/10/10 02:16:28;;;;;;;73.73;41.70;;;7.60;99.90;;;;;;5053028;28;38860;-79
2021/10/10 02:18:54;;;;;;;64.00;40.00;;;7.50;99.90;;;;;;5053550;28;37356;-78
2021/10/10 02:21:20;;;;;;;64.00;38.80;;;7.50;99.90;;;;;;5075319;28;38445;-78
2021/10/10 02:23:46;;;;;;;61.20;38.63;;;7.50;99.90;;;;;;5073166;28;38213;-78
2021/10/10 02:26:12;;;;;;;59.17;36.90;;;7.50;99.90;;;;;;5073705;28;37913;-79
2021/10/10 02:28:38;;;;;;;68.30;40.33;;;7.50;99.90;;;;;;5077378;28;37129;-79
2021/10/10 02:31:04;;;;;;;65.57;40.43;;;7.50;99.90;;;;;;5055591;28;37625;-79
2021/10/10 02:33:30;;;;;;;82.97;45.67;;;7.50;99.90;;;;;;5054248;28;39060;-79
2021/10/10 02:35:56;;;;;;;61.17;38.07;;;7.40;99.90;;;;;;5073207;28;38658;-78
2021/10/10 02:38:22;;;;;;;71.53;43.10;;;7.40;99.90;;;;;;5054090;28;37297;-78
2021/10/10 02:40:48;;;;;;;59.10;39.13;;;7.40;99.90;;;;;;5053407;28;38832;-78
2021/10/10 02:43:14;;;;;;;74.03;43.87;;;7.40;99.90;;;;;;5075073;28;38108;-78
2021/10/10 02:45:40;;;;;;;74.50;43.53;;;7.40;99.90;;;;;;5073397;28;37770;-78
2021/10/10 02:48:07;;;;;;;65.23;41.13;;;7.40;99.90;;;;;;5069253;28;37614;-77
2021/10/10 02:50:34;;;;;;;80.63;45.73;;;7.40;99.90;;;;;;5073799;28;38598;-78
2021/10/10 02:53:00;;;;;;;74.10;43.03;;;7.40;99.90;;;;;;5070905;28;38492;-78
2021/10/10 02:55:26;;;;;;;56.43;36.70;;;7.40;99.90;;;;;;5053767;28;36883;-78
2021/10/10 02:57:52;;;;;;;75.83;43.07;;;7.40;99.90;;;;;;5058150;28;37863;-77
2021/10/10 03:00:18;;;;;;;69.33;42.93;;;7.40;99.90;;;;;;5075575;28;38810;-78
2021/10/10 03:02:44;;;;;;;61.23;39.53;;;7.30;99.90;;;;;;5060953;28;37556;-78
2021/10/10 03:05:10;;;;;;;57.07;35.43;;;7.30;99.90;;;;;;5074612;28;38089;-78
2021/10/10 03:07:38;;;;;;;77.50;45.00;;;7.30;99.90;;;;;;5074160;28;39932;-79
2021/10/10 03:10:04;;;;;;;61.77;38.30;;;7.30;99.90;;;;;;5060683;28;40857;-77
2021/10/10 03:12:30;;;;;;;60.83;37.83;;;7.30;99.90;;;;;;5078519;28;38996;-78
2021/10/10 03:14:56;;;;;;;78.30;44.37;;;7.30;99.90;;;;;;5076783;28;38643;-78
2021/10/10 03:17:23;;;;;;;76.43;44.13;;;7.30;99.90;;;;;;5075783;28;36704;-77
2021/10/10 03:19:49;;;;;;;69.30;41.50;;;7.30;99.90;;;;;;5075761;28;38943;-78
2021/10/10 03:22:15;;;;;;;59.13;36.40;;;7.30;99.90;;;;;;5077339;28;38414;-78
2021/10/10 03:24:41;;;;;;;52.83;35.90;;;7.30;99.90;;;;;;5060672;28;38987;-78
2021/10/10 03:27:07;;;;;;;69.93;41.50;;;7.30;99.90;;;;;;5055955;28;35259;-77
2021/10/10 03:29:33;;;;;;;64.03;39.73;;;7.30;99.90;;;;;;5061858;28;39543;-78
2021/10/10 03:31:59;;;;;;;69.50;42.47;;;7.30;99.90;;;;;;5059382;28;37122;-78
2021/10/10 03:34:25;;;;;;;62.63;38.07;;;7.30;99.90;;;;;;5059044;28;38942;-78
2021/10/10 03:36:51;;;;;;;62.63;37.40;;;7.30;99.90;;;;;;5057748;28;38174;-78
2021/10/10 03:39:18;;;;;;;67.70;40.07;;;7.30;99.90;;;;;;5060087;28;39932;-78
2021/10/10 03:41:44;;;;;;;61.57;38.77;;;7.20;99.90;;;;;;5078204;28;39072;-78
2021/10/10 03:44:10;;;;;;;76.63;45.00;;;7.30;99.90;;;;;;5059223;28;38526;-78
2021/10/10 03:46:36;;;;;;;72.77;41.17;;;7.30;99.90;;;;;;5072369;28;38792;-77
2021/10/10 03:49:02;;;;;;;71.03;43.43;;;7.20;99.90;;;;;;5076453;28;37149;-77
2021/10/10 03:51:28;;;;;;;68.77;41.57;;;7.20;99.90;;;;;;5056615;28;38747;-77
2021/10/10 03:54:42;;;;;;;57.03;36.53;;;7.20;99.90;;;;;;5078533;28;37337;-77
2021/10/10 03:56:55;;;;;;;67.60;39.47;;;7.20;99.90;;;;;;5073609;28;48380;-77
2021/10/10 03:59:23;;;;;;;61.93;38.20;;;7.20;99.90;;;;;;5075906;28;38610;-78
2021/10/10 04:01:50;;;;;;;64.20;39.93;;;7.20;99.90;;;;;;5060730;28;36563;-78
2021/10/10 04:04:17;;;;;;;70.77;42.40;;;7.20;99.90;;;;;;5056310;28;38966;-78
2021/10/10 04:06:43;;;;;;;59.67;36.47;;;7.20;99.90;;;;;;5054521;28;38889;-78
2021/10/10 04:09:09;;;;;;;59.50;38.60;;;7.20;99.90;;;;;;5075652;28;39931;-77
2021/10/10 04:11:35;;;;;;;63.60;39.90;;;7.20;99.90;;;;;;5073543;28;39192;-78
2021/10/10 04:14:01;;;;;;;72.00;41.13;;;7.10;99.90;;;;;;5076542;28;38833;-75
2021/10/10 04:16:27;;;;;;;69.97;39.43;;;7.10;99.90;;;;;;5057974;28;37069;-77
2021/10/10 04:18:53;;;;;;;61.27;38.93;;;7.10;99.90;;;;;;5055348;28;39590;-77
2021/10/10 04:21:19;;;;;;;64.27;40.77;;;7.10;99.90;;;;;;5052370;28;38945;-77
2021/10/10 04:23:45;;;;;;;64.70;40.77;;;7.10;99.90;;;;;;5059850;28;38579;-78
2021/10/10 04:26:11;;;;;;;65.07;40.37;;;7.10;99.90;;;;;;5055496;28;39761;-78
2021/10/10 04:28:37;;;;;;;66.83;41.40;;;7.10;99.90;;;;;;5059732;28;39666;-78
2021/10/10 04:31:04;;;;;;;68.80;41.63;;;7.10;99.90;;;;;;5057622;28;38523;-78
2021/10/10 04:33:30;;;;;;;71.83;42.13;;;7.10;99.90;;;;;;5077769;28;39177;-77
2021/10/10 04:35:56;;;;;;;71.10;42.83;;;7.10;99.90;;;;;;5082822;28;35701;-78
2021/10/10 04:38:22;;;;;;;65.20;37.07;;;7.10;99.90;;;;;;5068203;28;39460;-78
2021/10/10 04:40:48;;;;;;;75.17;43.83;;;7.10;99.90;;;;;;5060413;28;39578;-78
2021/10/10 04:43:14;;;;;;;64.00;38.33;;;7.10;99.90;;;;;;5074676;28;37889;-77
2021/10/10 04:45:40;;;;;;;62.47;39.53;;;7.10;99.90;;;;;;5076343;28;37859;-78
2021/10/10 04:48:06;;;;;;;60.97;38.83;;;7.10;99.90;;;;;;5053888;28;39945;-78
2021/10/10 04:50:32;;;;;;;73.77;43.80;;;7.10;99.90;;;;;;5075874;28;38527;-78
2021/10/10 04:52:58;;;;;;;63.93;39.03;;;7.10;99.90;;;;;;5078654;28;38673;-77
2021/10/10 04:55:25;;;;;;;67.30;40.27;;;7.20;99.90;;;;;;5073416;28;37373;-77
2021/10/10 04:57:51;;;;;;;64.10;39.47;;;7.20;99.90;;;;;;5058989;28;40542;-77
2021/10/10 05:00:17;;;;;;;86.07;47.17;;;7.20;99.90;;;;;;5074615;28;37365;-78
2021/10/10 05:02:43;;;;;;;97.93;49.87;;;7.20;99.90;;;;;;5076563;28;37833;-77
2021/10/10 05:05:09;;;;;;;109.57;55.67;;;7.20;99.90;;;;;;5067642;28;35807;-77
2021/10/10 05:07:35;;;;;;;102.00;53.80;;;7.30;99.90;;;;;;5058423;28;39176;-78
2021/10/10 05:10:02;;;;;;;98.80;52.80;;;7.30;99.90;;;;;;5056444;28;37621;-77
2021/10/10 05:12:28;;;;;;;105.50;56.30;;;7.30;99.90;;;;;;5074528;28;38469;-77
2021/10/10 05:14:54;;;;;;;104.23;54.27;;;7.30;99.90;;;;;;5076956;28;37299;-77
2021/10/10 05:17:20;;;;;;;111.30;59.47;;;7.30;99.90;;;;;;5053630;28;39602;-77
2021/10/10 05:19:46;;;;;;;111.27;57.53;;;7.40;99.90;;;;;;5051829;28;37534;-77
2021/10/10 05:22:12;;;;;;;102.90;55.70;;;7.40;99.90;;;;;;5060721;28;38896;-78
2021/10/10 05:24:38;;;;;;;119.77;58.00;;;7.40;99.90;;;;;;5055186;28;37848;-77
2021/10/10 05:27:04;;;;;;;109.83;57.50;;;7.40;99.90;;;;;;5072375;28;38721;-78
2021/10/10 05:29:30;;;;;;;101.83;55.57;;;7.50;99.90;;;;;;5060197;28;38985;-78
2021/10/10 05:31:56;;;;;;;111.03;58.70;;;7.50;99.90;;;;;;5054382;28;38306;-78
2021/10/10 05:34:22;;;;;;;107.67;57.70;;;7.50;99.90;;;;;;5052953;28;38062;-78
2021/10/10 05:36:48;;;;;;;104.40;57.27;;;7.50;99.90;;;;;;5076529;28;38770;-78
2021/10/10 05:39:14;;;;;;;111.93;57.70;;;7.60;99.90;;;;;;5055852;28;40215;-77
2021/10/10 05:41:40;;;;;;;93.87;51.93;;;7.60;99.90;;;;;;5074364;28;39526;-77
2021/10/10 05:44:06;;;;;;;109.20;56.23;;;7.60;99.90;;;;;;5061553;28;38673;-78
2021/10/10 05:46:32;;;;;;;91.47;52.13;;;7.60;99.90;;;;;;5076656;28;39603;-78
2021/10/10 05:48:58;;;;;;;89.90;51.87;;;7.70;99.90;;;;;;5055490;28;39087;-77
2021/10/10 05:51:24;;;;;;;102.83;55.20;;;7.70;99.90;;;;;;5058797;28;38311;-77
2021/10/10 05:53:51;;;;;;;117.97;59.00;;;7.70;99.90;;;;;;5054666;28;38007;-78
2021/10/10 05:56:17;;;;;;;100.50;54.97;;;7.70;99.90;;;;;;5075447;28;38891;-78
2021/10/10 05:58:44;;;;;;;99.13;56.40;;;7.60;99.90;;;;;;5076711;28;38487;-77
2021/10/10 06:01:11;;;;;;;112.73;60.63;;;7.70;99.90;;;;;;5054443;28;39940;-78
2021/10/10 06:03:37;;;;;;;105.03;58.13;;;7.60;99.90;;;;;;5057107;28;37599;-78
2021/10/10 06:06:04;;;;;;;102.73;58.97;;;7.60;99.90;;;;;;5075600;28;38799;-77
2021/10/10 06:08:30;;;;;;;88.60;53.53;;;7.60;99.90;;;;;;5055655;28;39041;-78
2021/10/10 06:10:56;;;;;;;94.07;56.33;;;7.60;99.90;;;;;;5056829;28;38990;-78
2021/10/10 06:13:22;;;;;;;91.43;54.67;;;7.60;99.90;;;;;;5076070;28;39401;-78
2021/10/10 06:15:49;;;;;;;91.40;54.73;;;7.60;99.90;;;;;;5055065;28;40984;-78
2021/10/10 06:18:16;;;;;;;97.37;57.77;;;7.60;99.90;;;;;;5050677;28;38989;-78
2021/10/10 06:20:42;;;;;;;89.00;52.50;;;7.60;99.90;;;;;;5056536;28;38533;-78
2021/10/10 06:23:08;;;;;;;100.10;57.83;;;7.60;99.90;;;;;;5055618;28;37321;-78
2021/10/10 06:25:34;;;;;;;88.73;53.13;;;7.60;99.90;;;;;;5075760;28;38544;-77
2021/10/10 06:28:00;;;;;;;96.70;55.43;;;7.70;99.90;;;;;;5058306;28;38774;-78
2021/10/10 06:30:26;;;;;;;104.50;56.10;;;7.70;99.90;;;;;;5072665;28;47379;-78
2021/10/10 06:32:52;;;;;;;80.00;47.97;;;7.70;99.90;;;;;;5073867;28;37610;-78
2021/10/10 06:35:18;;;;;;;92.87;54.27;;;7.80;99.90;;;;;;5053656;28;39406;-78
2021/10/10 06:37:44;;;;;;;86.47;53.33;;;7.90;99.90;;;;;;5081460;28;38273;-78
2021/10/10 06:40:11;;;;;;;99.70;55.67;;;8.00;99.90;;;;;;5058606;28;38246;-78
2021/10/10 06:42:37;;;;;;;102.97;56.37;;;8.00;99.90;;;;;;5060090;28;37988;-78
2021/10/10 06:45:05;;;;;;;98.03;56.67;;;8.00;99.90;;;;;;5076230;28;39377;-77
2021/10/10 06:47:31;;;;;;;90.90;52.13;;;8.10;99.90;;;;;;5074806;28;49538;-77
2021/10/10 06:49:57;;;;;;;94.00;54.67;;;8.10;99.90;;;;;;5074853;28;40164;-78
2021/10/10 06:52:23;;;;;;;95.07;55.90;;;8.20;99.90;;;;;;5074649;28;37385;-77
2021/10/10 06:54:49;;;;;;;93.13;55.43;;;8.20;99.90;;;;;;5060769;28;39511;-78
2021/10/10 06:57:15;;;;;;;90.40;53.07;;;8.30;99.90;;;;;;5062462;28;39191;-78
2021/10/10 06:59:41;;;;;;;80.80;51.13;;;8.30;99.90;;;;;;5069137;28;36912;-80
2021/10/10 07:02:11;;;;;;;80.70;50.53;;;8.40;99.90;;;;;;5078071;28;37654;-80
2021/10/10 07:04:37;;;;;;;84.40;52.33;;;8.50;99.90;;;;;;5068144;28;39281;-79
2021/10/10 07:07:03;;;;;;;77.20;50.30;;;8.60;99.90;;;;;;5068718;28;40090;-78
2021/10/10 07:09:29;;;;;;;97.37;55.63;;;8.70;99.90;;;;;;5071400;28;39283;-79
2021/10/10 07:11:55;;;;;;;89.00;54.27;;;8.80;99.90;;;;;;5087325;28;38376;-79
2021/10/10 07:14:21;;;;;;;80.97;51.20;;;9.00;99.90;;;;;;5080650;28;38998;-79
2021/10/10 07:16:47;;;;;;;96.83;58.00;;;9.10;99.90;;;;;;5065614;28;37497;-80
2021/10/10 07:19:21;;;;;;;78.87;51.60;;;9.20;99.90;;;;;;5064164;28;38795;-79
2021/10/10 07:22:02;;;;;;;96.80;58.07;;;9.40;99.90;;;;;;5081530;28;37267;-79
2021/10/10 07:27:12;;;;;;;91.00;57.07;;;9.70;99.90;;;;;;5072572;28;41016;-80
2021/10/10 07:29:38;;;;;;;102.17;61.97;;;9.90;99.90;;;;;;5083788;28;38216;-80
2021/10/10 07:32:04;;;;;;;113.73;66.00;;;10.00;99.90;;;;;;5068272;28;38338;-79
2021/10/10 07:34:31;;;;;;;108.43;66.87;;;10.20;99.90;;;;;;5065301;28;38960;-80
2021/10/10 07:36:57;;;;;;;136.23;72.87;;;10.40;99.90;;;;;;5081642;28;37307;-80
2021/10/10 07:39:23;;;;;;;111.07;63.80;;;10.60;99.90;;;;;;5064421;28;39175;-80
2021/10/10 07:41:49;;;;;;;129.60;70.07;;;10.70;99.90;;;;;;5067549;28;36422;-79
2021/10/10 07:44:16;;;;;;;124.05;68.97;;;10.90;99.90;;;;;;5068225;28;38315;-79
2021/10/10 07:46:43;;;;;;;119.93;68.75;;;11.00;99.90;;;;;;5080880;28;38227;-79
2021/10/10 07:49:11;;;;;;;119.78;70.15;;;11.10;99.90;;;;;;5065076;28;39125;-80
2021/10/10 07:51:37;;;;;;;97.00;60.40;;;11.10;99.90;;;;;;5067253;28;36404;-79
2021/10/10 07:54:04;;;;;;;105.85;63.40;;;11.20;99.90;;;;;;5083533;28;38742;-79
2021/10/10 07:56:30;;;;;;;105.20;64.32;;;11.20;99.90;;;;;;5080181;28;38477;-80
2021/10/10 07:58:56;;;;;;;99.60;61.25;;;11.30;99.90;;;;;;5083107;28;37290;-79
2021/10/10 08:01:22;;;;;;;101.72;62.85;;;11.40;99.90;;;;;;5082723;28;38039;-79
2021/10/10 08:03:49;;;;;;;113.55;67.07;;;11.50;99.90;;;;;;5084389;28;37445;-78
2021/10/10 08:06:15;;;;;;;107.35;65.63;;;11.60;99.90;;;;;;5083359;28;37605;-79
2021/10/10 08:08:41;;;;;;;90.97;58.00;;;11.70;99.90;;;;;;5084333;28;38408;-79
2021/10/10 08:11:07;;;;;;;95.00;59.60;;;11.90;99.90;;;;;;5060836;28;37364;-79
2021/10/10 08:13:33;;;;;;;85.85;55.33;;;12.00;99.90;;;;;;5079477;28;38514;-79
2021/10/10 08:15:59;;;;;;;112.55;65.22;;;12.10;99.90;;;;;;5080963;28;39372;-79
2021/10/10 08:18:25;;;;;;;91.43;59.35;;;12.20;99.90;;;;;;5060255;28;39113;-80
2021/10/10 08:20:51;;;;;;;88.18;57.03;;;12.20;99.90;;;;;;5059271;28;37681;-80
2021/10/10 08:23:17;;;;;;;70.88;50.17;;;12.20;99.90;;;;;;5079579;28;38794;-77
2021/10/10 08:25:43;;;;;;;60.22;42.72;;;12.30;99.90;;;;;;5062374;28;40275;-77
2021/10/10 08:28:09;;;;;;;68.22;47.08;;;12.30;99.90;;;;;;5082080;28;38587;-77
2021/10/10 08:30:35;;;;;;;55.47;40.17;;;12.50;99.90;;;;;;5060777;28;38727;-80
2021/10/10 08:33:02;;;;;;;71.22;46.95;;;12.50;99.90;;;;;;5080192;28;38804;-78
2021/10/10 08:35:28;;;;;;;63.42;44.95;;;12.70;99.90;;;;;;5069222;28;39388;-77
2021/10/10 08:37:54;;;;;;;67.47;47.83;;;12.70;99.90;;;;;;5054017;28;39162;-77
2021/10/10 08:40:20;;;;;;;61.50;43.80;;;12.70;99.90;;;;;;5078325;28;38247;-76
2021/10/10 08:42:49;;;;;;;66.82;46.67;;;12.70;99.90;;;;;;5060530;28;40641;-79
2021/10/10 08:45:21;;;;;;;54.30;40.15;;;12.80;99.90;;;;;;5079126;28;39034;-79
2021/10/10 08:47:50;;;;;;;66.28;46.78;;;12.70;99.90;;;;;;5087819;28;38549;-79
2021/10/10 08:50:19;;;;;;;70.05;47.13;;;12.70;99.90;;;;;;5056945;28;36369;-79
2021/10/10 08:52:47;;;;;;;57.28;41.13;;;12.60;99.90;;;;;;5068106;28;39291;-81
2021/10/10 08:55:14;;;;;;;77.68;50.17;;;12.50;99.90;;;;;;5068647;28;39032;-80
2021/10/10 08:57:41;;;;;;;93.43;55.97;;;12.60;99.90;;;;;;5063809;28;37730;-80
2021/10/10 09:00:12;;;;;;;82.90;52.92;;;12.50;99.90;;;;;;5078093;28;37575;-79
2021/10/10 09:02:40;;;;;;;73.43;49.10;;;12.60;99.90;;;;;;5082102;28;40358;-79
2021/10/10 09:05:08;;;;;;;84.35;51.53;;;12.60;99.90;;;;;;5063332;28;20465;-80
2021/10/10 09:07:38;;;;;;;73.70;47.15;;;12.60;99.90;;;;;;5068368;28;38730;-80
2021/10/10 09:10:20;;;;;;;83.53;54.42;;;12.50;99.90;;;;;;5083803;28;37080;-80
2021/10/10 09:12:47;;;;;;;79.20;50.42;;;12.50;99.90;;;;;;5062968;28;47141;-80
2021/10/10 09:15:22;;;;;;;85.18;52.88;;;12.60;99.90;;;;;;5059059;28;40668;-80
2021/10/10 09:17:59;;;;;;;73.03;49.25;;;12.70;99.90;;;;;;5079109;28;38191;-80
2021/10/10 09:20:29;;;;;;;77.40;52.35;;;12.90;99.90;;;;;;5080876;28;39395;-79
2021/10/10 09:22:55;;;;;;;80.22;52.78;;;13.00;99.90;;;;;;5084444;28;39586;-80
2021/10/10 09:25:22;;;;;;;77.00;51.72;;;13.20;99.90;;;;;;5083982;28;38627;-80
2021/10/10 09:27:48;;;;;;;86.78;55.28;;;13.30;99.90;;;;;;5063011;28;39056;-80
2021/10/10 09:30:14;;;;;;;85.10;55.03;;;13.60;99.90;;;;;;5079616;28;38404;-80
2021/10/10 09:32:44;;;;;;;87.95;54.42;;;13.80;99.90;;;;;;5065007;28;39965;-77
2021/10/10 09:35:29;;;;;;;88.55;56.92;;;14.00;99.90;;;;;;5081767;28;39077;-78
2021/10/10 09:38:17;;;;;;;79.00;51.53;;;14.10;99.90;;;;;;5063459;28;38948;-78
2021/10/10 09:40:52;;;;;;;80.03;52.90;;;14.30;99.90;;;;;;5062639;28;47468;-78
2021/10/10 09:43:18;;;;;;;85.85;54.47;;;14.60;99.90;;;;;;5080136;28;38444;-79
2021/10/10 09:48:15;;;;;;;72.60;49.00;;;15.10;99.90;;;;;;5083160;28;38727;-78
2021/10/10 09:50:49;;;;;;;76.55;49.90;;;15.10;99.90;;;;;;5053224;28;36446;-79
2021/10/10 09:53:22;;;;;;;72.70;46.88;;;15.50;99.90;;;;;;5078960;28;37898;-79
2021/10/10 09:55:59;;;;;;;70.20;47.00;;;15.60;99.90;;;;;;5082777;28;39334;-79
2021/10/10 09:58:36;;;;;;;74.97;50.13;;;15.70;99.90;;;;;;5066371;28;38746;-81
2021/10/10 10:01:31;;;;;;;71.80;48.85;;;16.00;99.90;;;;;;5079523;28;37545;-79
2021/10/10 10:03:58;;;;;;;72.22;45.97;;;16.00;99.90;;;;;;5079799;28;38862;-79
2021/10/10 10:06:27;;;;;;;64.85;41.08;;;16.00;99.90;;;;;;5062913;28;37399;-78
2021/10/10 10:09:01;;;;;;;62.45;40.60;;;16.20;99.90;;;;;;5083940;27;38262;-79
2021/10/10 10:11:29;;;;;;;64.63;41.78;;;16.60;99.90;;;;;;5063471;28;47416;-79
2021/10/10 10:13:55;;;;;;;63.47;44.17;;;16.50;99.90;;;;;;5082433;28;38044;-79
2021/10/10 10:16:22;;;;;;;66.85;41.75;;;16.10;99.90;;;;;;5086696;28;39391;-79
2021/10/10 10:18:48;;;;;;;69.80;45.53;;;15.70;99.90;;;;;;5078024;28;38798;-78
2021/10/10 10:21:14;;;;;;;64.50;43.90;;;15.50;99.90;;;;;;5081101;28;37169;-79
2021/10/10 10:23:42;;;;;;;66.97;44.17;;;15.40;99.90;;;;;;5066682;28;38306;-79
2021/10/10 10:26:09;;;;;;;73.22;47.95;;;15.60;99.90;;;;;;5071987;28;36708;-79
2021/10/10 10:28:36;;;;;;;71.38;46.80;;;15.90;99.90;;;;;;5065013;28;38583;-79
2021/10/10 10:31:02;;;;;;;68.93;44.58;;;16.30;99.90;;;;;;5057455;28;35978;-78
2021/10/10 10:33:32;;;;;;;69.00;44.58;;;16.50;99.90;;;;;;5083010;28;39196;-79
2021/10/10 10:35:58;;;;;;;64.78;42.75;;;16.50;99.90;;;;;;5076437;28;38033;-79
2021/10/10 10:38:45;;;;;;;62.88;42.22;;;16.20;99.90;;;;;;5099510;28;38230;-79
2021/10/10 10:41:48;;;;;;;59.65;41.70;;;16.20;99.90;;;;;;5090734;28;37412;-80
2021/10/10 10:44:40;;;;;;;57.33;39.63;;;16.30;99.90;;;;;;5079903;28;39488;-80
2021/10/10 10:47:18;;;;;;;66.18;45.92;;;16.50;99.90;;;;;;5070480;28;37514;-80
2021/10/10 10:49:54;;;;;;;68.30;44.03;;;16.80;99.90;;;;;;5084042;28;37773;-80
2021/10/10 10:52:33;;;;;;;59.35;40.50;;;17.30;99.90;;;;;;5076817;28;37811;-81
2021/10/10 10:55:13;;;;;;;55.13;41.10;;;17.80;99.90;;;;;;5090403;28;38944;-80
2021/10/10 10:57:47;;;;;;;51.88;38.83;;;18.00;99.90;;;;;;5092014;28;49143;-80
2021/10/10 11:00:19;;;;;;;52.83;39.58;;;18.10;99.90;;;;;;5063429;28;37896;-80
2021/10/10 11:02:57;;;;;;;56.40;38.80;;;18.10;99.90;;;;;;5082544;28;38921;-80
2021/10/10 11:05:40;;;;;;;47.55;34.38;;;18.10;99.90;;;;;;5088848;28;38975;-80
2021/10/10 11:08:34;;;;;;;52.10;37.22;;;18.30;99.90;;;;;;5070960;28;37811;-80
2021/10/10 11:11:00;;;;;;;51.83;37.05;;;18.20;99.90;;;;;;5064965;28;37681;-80
2021/10/10 11:13:39;;;;;;;43.58;34.55;;;17.90;99.90;;;;;;5069443;28;38669;-80
2021/10/10 11:16:16;;;;;;;50.03;36.15;;;17.70;99.90;;;;;;5078222;28;38931;-79
2021/10/10 11:18:53;;;;;;;47.35;36.35;;;17.50;99.90;;;;;;5086171;28;38580;-79
2021/10/10 11:21:26;;;;;;;48.25;36.63;;;17.40;99.90;;;;;;5062689;28;36970;-80
2021/10/10 11:23:58;;;;;;;50.92;38.60;;;17.20;99.90;;;;;;5090824;28;38126;-80
2021/10/10 11:26:26;;;;;;;44.22;33.80;;;17.30;99.90;;;;;;5088979;28;38859;-80
2021/10/10 11:28:54;;;;;;;46.67;36.05;;;17.50;99.90;;;;;;5075693;28;38412;-80
2021/10/10 11:31:24;;;;;;;49.42;36.70;;;17.70;99.90;;;;;;5097340;27;39151;-80
2021/10/10 11:33:55;;;;;;;40.78;30.30;;;17.90;99.90;;;;;;5092144;28;37563;-81
2021/10/10 11:36:39;;;;;;;38.50;28.65;;;18.00;99.90;;;;;;5083400;28;39322;-79
2021/10/10 11:39:15;;;;;;;30.30;22.95;;;18.10;99.90;;;;;;5062567;28;37321;-79
2021/10/10 11:41:48;;;;;;;36.42;25.52;;;18.50;99.90;;;;;;5083378;28;37177;-79
2021/10/10 11:44:16;;;;;;;33.05;23.65;;;18.80;99.90;;;;;;5072452;28;34711;-79
2021/10/10 11:46:54;;;;;;;36.67;26.00;;;18.80;99.90;;;;;;5081293;28;39729;-79
2021/10/10 11:49:40;;;;;;;32.38;24.88;;;18.60;99.90;;;;;;5072805;28;38775;-78
2021/10/10 11:54:47;;;;;;;33.40;24.30;;;18.20;99.90;;;;;;5087840;28;37865;-79
2021/10/10 11:57:15;;;;;;;34.83;27.92;;;18.20;99.90;;;;;;5068132;28;39625;-79
2021/10/10 11:59:52;;;;;;;34.20;26.55;;;18.20;99.90;;;;;;5067815;28;36988;-78
2021/10/10 12:02:19;;;;;;;32.67;26.90;;;18.10;99.90;;;;;;5066930;28;37402;-79
2021/10/10 12:04:46;;;;;;;27.52;23.40;;;17.90;99.90;;;;;;5071988;28;37493;-81
2021/10/10 12:07:12;;;;;;;27.50;21.92;;;17.80;99.90;;;;;;5087297;28;41634;-78
2021/10/10 12:09:50;;;;;;;25.92;21.45;;;17.80;99.90;;;;;;5081444;28;38777;-81
2021/10/10 12:12:18;;;;;;;21.70;18.27;;;18.00;99.90;;;;;;5067531;28;39338;-81
2021/10/10 12:14:50;;;;;;;23.75;17.58;;;18.00;99.90;;;;;;5069395;28;36474;-79
2021/10/10 12:17:36;;;;;;;19.42;15.98;;;18.00;99.90;;;;;;5081304;28;37400;-78
2021/10/10 12:20:17;;;;;;;15.90;14.20;;;18.10;99.90;;;;;;5063656;28;37777;-79
2021/10/10 12:23:02;;;;;;;18.33;13.18;;;18.10;99.90;;;;;;5030551;28;48808;-79
2021/10/10 12:25:34;;;;;;;17.67;14.55;;;18.40;99.90;;;;;;5041854;28;48355;-79
2021/10/10 12:28:16;;;;;;;17.70;14.23;;;18.20;99.90;;;;;;5042594;28;38736;-79
2021/10/10 12:30:57;;;;;;;15.48;13.50;;;18.10;99.90;;;;;;5071969;28;47147;-79
2021/10/10 12:33:40;;;;;;;16.92;12.02;;;18.40;99.90;;;;;;5045311;28;38777;-79
2021/10/10 12:36:16;;;;;;;15.38;11.95;;;18.60;99.90;;;;;;5034653;28;36873;-78
2021/10/10 12:38:42;;;;;;;14.77;11.52;;;18.80;99.90;;;;;;5047173;28;37748;-80
2021/10/10 12:41:21;;;;;;;14.85;11.38;;;18.40;99.90;;;;;;5044013;27;39080;-79
2021/10/10 12:43:52;;;;;;;12.75;10.93;;;18.10;99.90;;;;;;5064269;28;37125;-79
2021/10/10 12:46:23;;;;;;;13.00;11.30;;;17.90;99.90;;;;;;5048271;28;37886;-80